CheckWX is a tool to help pilots better visualize weather data.  It is not intended as a substitute for an official pre-flight weather briefing.

03:54:30 UTC

KMCE METAR
Merced Regional / Macready Field Airport
Merced, California, USA
Current

1 hour ago

KMCE 260253Z AUTO 26010KT 10SM CLR 17/07 A2974 RMK AO2 SLP069 T01720072 53002
Observed
May-26 @ 02:53 UTC
Wind
  • 260° at 10 KTS
Visibility
10 SM
Flight Rules
VFR
Cloud Levels
  • Clear skies
Temperature
17°C / 63°F
Dewpoint
C / 45°F
Humidity
52%
Altimeter
29.74" Hg
Pressure
1007.12 hPa
Previous

2 hours ago

KMCE 260153Z AUTO 25013G19KT 10SM CLR 21/07 A2973 RMK AO2 SLP066 T02110067
Observed
May-26 @ 01:53 UTC
Wind
  • 250° at 13 KTS
  • Gusting to 19 KTS
Visibility
10 SM
Flight Rules
VFR
Cloud Levels
  • Clear skies
Temperature
21°C / 70°F
Dewpoint
C / 45°F
Humidity
40%
Altimeter
29.73" Hg
Pressure
1006.82 hPa
Previous

3 hours ago

KMCE 260053Z AUTO 26010KT 10SM CLR 24/03 A2972 RMK AO2 SLP065 T02390033
Observed
May-26 @ 00:53 UTC
Wind
  • 260° at 10 KTS
Visibility
10 SM
Flight Rules
VFR
Cloud Levels
  • Clear skies
Temperature
24°C / 75°F
Dewpoint
C / 37°F
Humidity
25%
Altimeter
29.72" Hg
Pressure
1006.42 hPa